sensor_id;sensor_type;location;lat;lon;timestamp;pressure;altitude;pressure_sealevel;temperature;humidity
80644;BME280;70010;60.224;24.712;2023-09-19T00:01:56;101074.53;;;8.56;59.68
80644;BME280;70010;60.224;24.712;2023-09-19T00:04:21;101066.98;;;7.89;60.25
80644;BME280;70010;60.224;24.712;2023-09-19T00:06:47;101062.89;;;7.84;62.49
80644;BME280;70010;60.224;24.712;2023-09-19T00:09:12;101047.52;;;7.64;61.90
80644;BME280;70010;60.224;24.712;2023-09-19T00:11:37;101044.00;;;7.36;63.24
80644;BME280;70010;60.224;24.712;2023-09-19T00:14:03;101035.72;;;8.35;60.56
80644;BME280;70010;60.224;24.712;2023-09-19T00:16:28;101037.05;;;10.23;56.63
80644;BME280;70010;60.224;24.712;2023-09-19T00:18:53;101035.10;;;8.52;59.78
80644;BME280;70010;60.224;24.712;2023-09-19T00:21:18;101029.97;;;9.36;58.43
80644;BME280;70010;60.224;24.712;2023-09-19T00:23:44;101022.59;;;7.95;62.21
80644;BME280;70010;60.224;24.712;2023-09-19T00:26:09;101024.58;;;8.73;60.46
80644;BME280;70010;60.224;24.712;2023-09-19T00:28:34;101019.70;;;8.73;60.18
80644;BME280;70010;60.224;24.712;2023-09-19T00:30:59;101018.42;;;8.31;60.66
80644;BME280;70010;60.224;24.712;2023-09-19T00:33:25;101018.55;;;7.73;63.22
80644;BME280;70010;60.224;24.712;2023-09-19T00:35:51;101017.10;;;7.81;62.36
80644;BME280;70010;60.224;24.712;2023-09-19T00:38:15;101015.20;;;7.86;63.05
80644;BME280;70010;60.224;24.712;2023-09-19T00:40:43;101006.26;;;8.09;62.20
80644;BME280;70010;60.224;24.712;2023-09-19T00:43:06;100996.58;;;7.32;62.95
80644;BME280;70010;60.224;24.712;2023-09-19T00:45:31;100989.52;;;7.83;63.20
80644;BME280;70010;60.224;24.712;2023-09-19T00:47:57;100986.64;;;7.91;62.00
80644;BME280;70010;60.224;24.712;2023-09-19T00:50:23;100989.22;;;8.93;60.17
80644;BME280;70010;60.224;24.712;2023-09-19T00:52:48;100984.83;;;9.90;57.59
80644;BME280;70010;60.224;24.712;2023-09-19T00:55:14;100984.00;;;7.46;62.84
80644;BME280;70010;60.224;24.712;2023-09-19T00:57:38;100973.37;;;10.59;55.27
80644;BME280;70010;60.224;24.712;2023-09-19T01:00:04;100976.74;;;8.25;60.29
80644;BME280;70010;60.224;24.712;2023-09-19T01:02:28;100976.32;;;10.01;57.75
80644;BME280;70010;60.224;24.712;2023-09-19T01:04:54;100977.76;;;8.61;61.24
80644;BME280;70010;60.224;24.712;2023-09-19T01:07:19;100968.25;;;9.37;59.10
80644;BME280;70010;60.224;24.712;2023-09-19T01:09:44;100957.44;;;9.30;58.20
80644;BME280;70010;60.224;24.712;2023-09-19T01:12:09;100949.71;;;9.54;57.03
80644;BME280;70010;60.224;24.712;2023-09-19T01:14:41;100957.00;;;8.66;59.80
80644;BME280;70010;60.224;24.712;2023-09-19T01:17:04;100959.66;;;8.72;60.39
80644;BME280;70010;60.224;24.712;2023-09-19T01:21:55;100953.54;;;8.71;61.33
80644;BME280;70010;60.224;24.712;2023-09-19T01:26:56;100940.38;;;9.84;57.34
80644;BME280;70010;60.224;24.712;2023-09-19T01:29:18;100938.04;;;7.99;61.04
80644;BME280;70010;60.224;24.712;2023-09-19T01:31:34;100928.83;;;7.73;63.13
80644;BME280;70010;60.224;24.712;2023-09-19T01:33:59;100932.27;;;9.40;59.48
80644;BME280;70010;60.224;24.712;2023-09-19T01:36:22;100930.38;;;7.27;64.66
80644;BME280;70010;60.224;24.712;2023-09-19T01:38:47;100926.79;;;7.53;64.28
80644;BME280;70010;60.224;24.712;2023-09-19T01:41:18;100919.90;;;8.90;60.41
80644;BME280;70010;60.224;24.712;2023-09-19T01:43:42;100907.84;;;8.66;61.17
80644;BME280;70010;60.224;24.712;2023-09-19T01:46:08;100903.73;;;8.45;60.63
80644;BME280;70010;60.224;24.712;2023-09-19T01:48:35;100884.69;;;10.23;56.44
80644;BME280;70010;60.224;24.712;2023-09-19T01:50:59;100882.80;;;9.58;59.10
80644;BME280;70010;60.224;24.712;2023-09-19T01:53:24;100874.31;;;10.24;56.72
80644;BME280;70010;60.224;24.712;2023-09-19T01:55:48;100870.02;;;8.47;60.62
80644;BME280;70010;60.224;24.712;2023-09-19T01:58:17;100862.83;;;9.17;59.18
80644;BME280;70010;60.224;24.712;2023-09-19T02:00:37;100861.23;;;7.71;61.48
80644;BME280;70010;60.224;24.712;2023-09-19T02:03:00;100852.41;;;7.21;65.09
80644;BME280;70010;60.224;24.712;2023-09-19T02:05:26;100853.73;;;6.88;66.18
80644;BME280;70010;60.224;24.712;2023-09-19T02:07:51;100848.21;;;8.29;62.16
80644;BME280;70010;60.224;24.712;2023-09-19T02:10:16;100842.75;;;7.02;65.17
80644;BME280;70010;60.224;24.712;2023-09-19T02:12:41;100843.68;;;7.32;65.12
80644;BME280;70010;60.224;24.712;2023-09-19T02:15:08;100838.02;;;9.19;60.65
80644;BME280;70010;60.224;24.712;2023-09-19T02:17:36;100833.37;;;9.71;59.85
80644;BME280;70010;60.224;24.712;2023-09-19T02:20:02;100820.49;;;8.77;61.06
80644;BME280;70010;60.224;24.712;2023-09-19T02:22:27;100821.08;;;8.21;63.24
80644;BME280;70010;60.224;24.712;2023-09-19T02:24:52;100818.66;;;7.54;65.72
80644;BME280;70010;60.224;24.712;2023-09-19T02:27:17;100813.44;;;8.49;62.48
80644;BME280;70010;60.224;24.712;2023-09-19T02:29:43;100804.21;;;8.33;62.32
80644;BME280;70010;60.224;24.712;2023-09-19T02:32:08;100793.85;;;9.00;62.03
80644;BME280;70010;60.224;24.712;2023-09-19T02:34:33;100792.00;;;9.05;62.39
80644;BME280;70010;60.224;24.712;2023-09-19T02:36:59;100792.58;;;8.85;62.44
80644;BME280;70010;60.224;24.712;2023-09-19T02:39:24;100789.89;;;8.43;63.51
80644;BME280;70010;60.224;24.712;2023-09-19T02:41:49;100788.28;;;8.87;63.72
80644;BME280;70010;60.224;24.712;2023-09-19T02:44:14;100788.05;;;8.35;65.26
80644;BME280;70010;60.224;24.712;2023-09-19T02:46:40;100790.48;;;7.81;65.33
80644;BME280;70010;60.224;24.712;2023-09-19T02:49:05;100779.67;;;10.25;59.96
80644;BME280;70010;60.224;24.712;2023-09-19T02:51:30;100777.89;;;8.22;64.36
80644;BME280;70010;60.224;24.712;2023-09-19T02:53:55;100773.75;;;9.07;63.41
80644;BME280;70010;60.224;24.712;2023-09-19T02:56:21;100773.49;;;8.64;64.42
80644;BME280;70010;60.224;24.712;2023-09-19T02:58:46;100767.51;;;8.37;64.89
80644;BME280;70010;60.224;24.712;2023-09-19T03:01:11;100766.52;;;7.66;67.11
80644;BME280;70010;60.224;24.712;2023-09-19T03:03:36;100747.54;;;10.14;61.59
80644;BME280;70010;60.224;24.712;2023-09-19T03:06:02;100740.89;;;8.69;64.85
80644;BME280;70010;60.224;24.712;2023-09-19T03:08:27;100736.77;;;9.26;64.10
80644;BME280;70010;60.224;24.712;2023-09-19T03:10:52;100733.32;;;8.33;67.33
80644;BME280;70010;60.224;24.712;2023-09-19T03:13:17;100722.95;;;8.73;65.81
80644;BME280;70010;60.224;24.712;2023-09-19T03:15:43;100720.50;;;9.06;65.18
80644;BME280;70010;60.224;24.712;2023-09-19T03:18:08;100711.03;;;11.08;59.01
80644;BME280;70010;60.224;24.712;2023-09-19T03:20:33;100703.74;;;9.83;62.52
80644;BME280;70010;60.224;24.712;2023-09-19T03:22:58;100701.62;;;10.24;62.58
80644;BME280;70010;60.224;24.712;2023-09-19T03:25:24;100697.20;;;12.54;56.71
80644;BME280;70010;60.224;24.712;2023-09-19T03:27:49;100693.67;;;10.52;61.75
80644;BME280;70010;60.224;24.712;2023-09-19T03:30:15;100690.54;;;11.48;58.67
80644;BME280;70010;60.224;24.712;2023-09-19T03:32:44;100685.31;;;10.88;60.57
80644;BME280;70010;60.224;24.712;2023-09-19T03:35:05;100677.84;;;10.39;61.61
80644;BME280;70010;60.224;24.712;2023-09-19T03:37:30;100676.41;;;9.91;64.42
80644;BME280;70010;60.224;24.712;2023-09-19T03:39:55;100671.49;;;9.02;69.10
80644;BME280;70010;60.224;24.712;2023-09-19T03:42:21;100663.22;;;9.05;68.94
80644;BME280;70010;60.224;24.712;2023-09-19T03:44:46;100657.65;;;9.80;66.92
80644;BME280;70010;60.224;24.712;2023-09-19T03:47:12;100658.62;;;11.09;63.41
80644;BME280;70010;60.224;24.712;2023-09-19T03:49:37;100650.28;;;10.23;66.89
80644;BME280;70010;60.224;24.712;2023-09-19T03:52:03;100651.73;;;10.17;66.01
80644;BME280;70010;60.224;24.712;2023-09-19T03:54:28;100644.67;;;10.94;63.46
80644;BME280;70010;60.224;24.712;2023-09-19T03:56:53;100631.51;;;12.64;60.05
80644;BME280;70010;60.224;24.712;2023-09-19T03:59:19;100633.54;;;10.98;65.07
80644;BME280;70010;60.224;24.712;2023-09-19T04:01:44;100624.31;;;10.85;66.66
80644;BME280;70010;60.224;24.712;2023-09-19T04:04:10;100614.29;;;12.82;61.23
80644;BME280;70010;60.224;24.712;2023-09-19T04:06:36;100611.61;;;12.51;62.98
80644;BME280;70010;60.224;24.712;2023-09-19T04:09:02;100613.09;;;10.44;71.36
80644;BME280;70010;60.224;24.712;2023-09-19T04:11:27;100604.68;;;11.69;64.85
80644;BME280;70010;60.224;24.712;2023-09-19T04:13:52;100599.41;;;11.70;65.18
80644;BME280;70010;60.224;24.712;2023-09-19T04:16:17;100597.22;;;10.07;72.71
80644;BME280;70010;60.224;24.712;2023-09-19T04:18:42;100589.07;;;11.85;65.42
80644;BME280;70010;60.224;24.712;2023-09-19T04:21:07;100585.97;;;10.96;69.26
80644;BME280;70010;60.224;24.712;2023-09-19T04:23:33;100577.30;;;12.11;64.45
80644;BME280;70010;60.224;24.712;2023-09-19T04:25:59;100570.91;;;11.21;67.50
80644;BME280;70010;60.224;24.712;2023-09-19T04:28:24;100559.74;;;11.97;64.20
80644;BME280;70010;60.224;24.712;2023-09-19T04:30:50;100564.24;;;11.62;66.11
80644;BME280;70010;60.224;24.712;2023-09-19T04:33:15;100560.05;;;12.06;63.78
80644;BME280;70010;60.224;24.712;2023-09-19T04:35:41;100556.98;;;10.67;70.53
80644;BME280;70010;60.224;24.712;2023-09-19T04:38:06;100558.13;;;11.07;69.09
80644;BME280;70010;60.224;24.712;2023-09-19T04:40:32;100557.87;;;10.77;68.47
80644;BME280;70010;60.224;24.712;2023-09-19T04:42:57;100551.59;;;11.39;67.08
80644;BME280;70010;60.224;24.712;2023-09-19T04:45:22;100548.62;;;11.15;67.75
80644;BME280;70010;60.224;24.712;2023-09-19T04:47:47;100544.48;;;12.04;64.43
80644;BME280;70010;60.224;24.712;2023-09-19T04:50:13;100540.82;;;12.28;63.16
80644;BME280;70010;60.224;24.712;2023-09-19T04:52:39;100538.22;;;12.58;61.73
80644;BME280;70010;60.224;24.712;2023-09-19T04:55:03;100537.98;;;12.01;63.84
80644;BME280;70010;60.224;24.712;2023-09-19T04:57:28;100540.49;;;10.76;68.20
80644;BME280;70010;60.224;24.712;2023-09-19T04:59:53;100534.51;;;11.30;67.21
80644;BME280;70010;60.224;24.712;2023-09-19T05:02:19;100528.23;;;10.29;71.88
80644;BME280;70010;60.224;24.712;2023-09-19T05:04:44;100517.73;;;12.16;65.22
80644;BME280;70010;60.224;24.712;2023-09-19T05:07:09;100524.64;;;10.22;72.10
80644;BME280;70010;60.224;24.712;2023-09-19T05:09:34;100515.01;;;10.16;73.20
80644;BME280;70010;60.224;24.712;2023-09-19T05:12:00;100511.62;;;9.42;78.20
80644;BME280;70010;60.224;24.712;2023-09-19T05:14:25;100508.37;;;9.93;76.29
80644;BME280;70010;60.224;24.712;2023-09-19T05:16:50;100508.28;;;11.53;69.04
80644;BME280;70010;60.224;24.712;2023-09-19T05:19:15;100493.88;;;10.30;72.69
80644;BME280;70010;60.224;24.712;2023-09-19T05:21:41;100491.23;;;10.92;70.68
80644;BME280;70010;60.224;24.712;2023-09-19T05:24:06;100475.28;;;11.90;65.43
80644;BME280;70010;60.224;24.712;2023-09-19T05:26:31;100473.12;;;11.33;68.78
80644;BME280;70010;60.224;24.712;2023-09-19T05:28:56;100468.33;;;11.45;66.01
80644;BME280;70010;60.224;24.712;2023-09-19T05:31:22;100466.31;;;10.18;72.85
80644;BME280;70010;60.224;24.712;2023-09-19T05:33:47;100468.48;;;12.03;65.35
80644;BME280;70010;60.224;24.712;2023-09-19T05:36:13;100473.74;;;11.37;68.18
80644;BME280;70010;60.224;24.712;2023-09-19T05:38:38;100476.04;;;9.97;74.95
80644;BME280;70010;60.224;24.712;2023-09-19T05:41:04;100467.37;;;11.77;68.44
80644;BME280;70010;60.224;24.712;2023-09-19T05:43:29;100463.50;;;11.33;67.61
80644;BME280;70010;60.224;24.712;2023-09-19T05:45:54;100465.41;;;11.23;69.48
80644;BME280;70010;60.224;24.712;2023-09-19T05:48:19;100451.16;;;11.24;68.36
80644;BME280;70010;60.224;24.712;2023-09-19T05:50:45;100444.03;;;13.12;62.32
80644;BME280;70010;60.224;24.712;2023-09-19T05:53:10;100436.75;;;13.10;61.92
80644;BME280;70010;60.224;24.712;2023-09-19T05:55:35;100429.56;;;13.50;61.37
80644;BME280;70010;60.224;24.712;2023-09-19T05:58:01;100425.45;;;11.63;67.02
80644;BME280;70010;60.224;24.712;2023-09-19T06:00:27;100418.70;;;11.18;67.56
80644;BME280;70010;60.224;24.712;2023-09-19T06:02:52;100413.63;;;12.34;62.97
80644;BME280;70010;60.224;24.712;2023-09-19T06:05:18;100415.50;;;11.43;67.13
80644;BME280;70010;60.224;24.712;2023-09-19T06:07:42;100419.84;;;11.10;70.03
80644;BME280;70010;60.224;24.712;2023-09-19T06:10:08;100412.48;;;11.34;67.98
80644;BME280;70010;60.224;24.712;2023-09-19T06:12:37;100410.33;;;11.27;68.98
80644;BME280;70010;60.224;24.712;2023-09-19T06:14:59;100406.89;;;12.04;66.66
80644;BME280;70010;60.224;24.712;2023-09-19T06:17:24;100400.57;;;11.85;65.92
80644;BME280;70010;60.224;24.712;2023-09-19T06:19:50;100395.47;;;13.71;61.01
80644;BME280;70010;60.224;24.712;2023-09-19T06:22:16;100390.71;;;11.76;65.85
80644;BME280;70010;60.224;24.712;2023-09-19T06:24:41;100387.55;;;11.96;65.48
80644;BME280;70010;60.224;24.712;2023-09-19T06:27:06;100378.10;;;11.65;68.25
80644;BME280;70010;60.224;24.712;2023-09-19T06:29:31;100388.48;;;10.77;71.78
80644;BME280;70010;60.224;24.712;2023-09-19T06:31:57;100378.55;;;12.62;64.75
80644;BME280;70010;60.224;24.712;2023-09-19T06:34:22;100378.98;;;10.41;74.04
80644;BME280;70010;60.224;24.712;2023-09-19T06:36:47;100368.62;;;11.54;68.78
80644;BME280;70010;60.224;24.712;2023-09-19T06:39:13;100368.98;;;10.80;70.42
80644;BME280;70010;60.224;24.712;2023-09-19T06:41:38;100371.36;;;10.74;72.11
80644;BME280;70010;60.224;24.712;2023-09-19T06:44:04;100369.79;;;10.89;72.36
80644;BME280;70010;60.224;24.712;2023-09-19T06:46:29;100367.78;;;11.61;69.21
80644;BME280;70010;60.224;24.712;2023-09-19T06:48:54;100364.65;;;12.55;65.57
80644;BME280;70010;60.224;24.712;2023-09-19T06:51:19;100353.91;;;12.47;64.49
80644;BME280;70010;60.224;24.712;2023-09-19T06:53:45;100348.91;;;12.28;65.82
80644;BME280;70010;60.224;24.712;2023-09-19T06:56:10;100339.22;;;13.61;62.26
80644;BME280;70010;60.224;24.712;2023-09-19T06:58:35;100336.12;;;12.91;62.64
80644;BME280;70010;60.224;24.712;2023-09-19T07:01:01;100332.60;;;12.25;66.45
80644;BME280;70010;60.224;24.712;2023-09-19T07:03:26;100330.60;;;12.54;64.90
80644;BME280;70010;60.224;24.712;2023-09-19T07:05:52;100330.90;;;14.76;58.74
80644;BME280;70010;60.224;24.712;2023-09-19T07:08:18;100328.88;;;12.77;65.12
80644;BME280;70010;60.224;24.712;2023-09-19T07:10:43;100328.07;;;11.33;69.45
80644;BME280;70010;60.224;24.712;2023-09-19T07:13:08;100321.16;;;13.20;64.28
80644;BME280;70010;60.224;24.712;2023-09-19T07:15:33;100318.09;;;13.46;62.97
80644;BME280;70010;60.224;24.712;2023-09-19T07:17:59;100313.65;;;14.42;60.07
80644;BME280;70010;60.224;24.712;2023-09-19T07:20:25;100304.64;;;15.14;57.11
80644;BME280;70010;60.224;24.712;2023-09-19T07:22:50;100304.36;;;12.62;64.24
80644;BME280;70010;60.224;24.712;2023-09-19T07:25:15;100295.40;;;15.13;57.18
80644;BME280;70010;60.224;24.712;2023-09-19T07:27:41;100289.26;;;14.80;57.77
80644;BME280;70010;60.224;24.712;2023-09-19T07:30:07;100287.56;;;13.55;60.57
80644;BME280;70010;60.224;24.712;2023-09-19T07:32:31;100280.17;;;12.92;64.74
80644;BME280;70010;60.224;24.712;2023-09-19T07:34:56;100272.01;;;14.83;58.10
80644;BME280;70010;60.224;24.712;2023-09-19T07:37:22;100272.24;;;11.56;68.64
80644;BME280;70010;60.224;24.712;2023-09-19T07:39:47;100268.09;;;12.65;65.11
80644;BME280;70010;60.224;24.712;2023-09-19T07:42:12;100259.31;;;14.31;59.96
80644;BME280;70010;60.224;24.712;2023-09-19T07:44:38;100257.33;;;14.98;57.96
80644;BME280;70010;60.224;24.712;2023-09-19T07:47:04;100257.38;;;12.61;64.67
80644;BME280;70010;60.224;24.712;2023-09-19T07:49:29;100257.56;;;12.24;66.07
80644;BME280;70010;60.224;24.712;2023-09-19T07:51:55;100253.71;;;13.92;61.88
80644;BME280;70010;60.224;24.712;2023-09-19T07:54:20;100254.08;;;12.80;65.74
80644;BME280;70010;60.224;24.712;2023-09-19T07:56:45;100253.03;;;13.47;63.09
80644;BME280;70010;60.224;24.712;2023-09-19T07:59:11;100250.67;;;13.08;63.76
80644;BME280;70010;60.224;24.712;2023-09-19T08:01:36;100249.02;;;13.64;63.64
80644;BME280;70010;60.224;24.712;2023-09-19T08:04:02;100242.74;;;11.87;70.07
80644;BME280;70010;60.224;24.712;2023-09-19T08:06:27;100241.71;;;11.76;72.08
80644;BME280;70010;60.224;24.712;2023-09-19T08:08:52;100235.32;;;13.64;64.49
80644;BME280;70010;60.224;24.712;2023-09-19T08:11:17;100235.19;;;13.48;63.72
80644;BME280;70010;60.224;24.712;2023-09-19T08:13:43;100237.93;;;11.64;71.54
80644;BME280;70010;60.224;24.712;2023-09-19T08:16:08;100228.32;;;11.26;72.09
80644;BME280;70010;60.224;24.712;2023-09-19T08:18:34;100217.77;;;11.97;70.71
80644;BME280;70010;60.224;24.712;2023-09-19T08:20:59;100214.56;;;11.96;70.16
80644;BME280;70010;60.224;24.712;2023-09-19T08:23:25;100207.92;;;12.75;68.02
80644;BME280;70010;60.224;24.712;2023-09-19T08:25:50;100195.22;;;14.59;60.69
80644;BME280;70010;60.224;24.712;2023-09-19T08:28:16;100195.05;;;11.60;69.15
80644;BME280;70010;60.224;24.712;2023-09-19T08:30:41;100191.63;;;13.17;66.29
80644;BME280;70010;60.224;24.712;2023-09-19T08:33:07;100187.00;;;12.36;66.38
80644;BME280;70010;60.224;24.712;2023-09-19T08:35:33;100183.98;;;12.26;68.90
80644;BME280;70010;60.224;24.712;2023-09-19T08:37:58;100183.57;;;12.47;68.13
80644;BME280;70010;60.224;24.712;2023-09-19T08:40:23;100187.72;;;12.89;66.44
80644;BME280;70010;60.224;24.712;2023-09-19T08:42:49;100190.08;;;10.62;77.08
80644;BME280;70010;60.224;24.712;2023-09-19T08:45:13;100179.62;;;11.46;73.57
80644;BME280;70010;60.224;24.712;2023-09-19T08:47:45;100183.24;;;12.79;67.42
80644;BME280;70010;60.224;24.712;2023-09-19T08:50:09;100179.60;;;12.88;68.78
80644;BME280;70010;60.224;24.712;2023-09-19T08:52:32;100174.66;;;13.76;64.25
80644;BME280;70010;60.224;24.712;2023-09-19T08:54:59;100165.56;;;12.09;69.76
80644;BME280;70010;60.224;24.712;2023-09-19T08:57:21;100165.64;;;12.51;68.42
80644;BME280;70010;60.224;24.712;2023-09-19T08:59:47;100162.94;;;12.22;68.15
80644;BME280;70010;60.224;24.712;2023-09-19T09:02:12;100160.09;;;11.44;75.10
80644;BME280;70010;60.224;24.712;2023-09-19T09:04:39;100151.71;;;11.39;74.77
80644;BME280;70010;60.224;24.712;2023-09-19T09:07:03;100144.15;;;12.78;68.78
80644;BME280;70010;60.224;24.712;2023-09-19T09:09:29;100130.44;;;14.29;63.33
80644;BME280;70010;60.224;24.712;2023-09-19T09:11:54;100131.73;;;13.39;64.52
80644;BME280;70010;60.224;24.712;2023-09-19T09:14:20;100126.08;;;12.97;67.20
80644;BME280;70010;60.224;24.712;2023-09-19T09:16:45;100117.86;;;13.66;63.19
80644;BME280;70010;60.224;24.712;2023-09-19T09:19:11;100110.51;;;13.47;65.40
80644;BME280;70010;60.224;24.712;2023-09-19T09:21:37;100105.81;;;11.24;74.90
80644;BME280;70010;60.224;24.712;2023-09-19T09:28:52;100095.13;;;12.68;68.31
80644;BME280;70010;60.224;24.712;2023-09-19T09:31:23;100081.25;;;13.34;66.08
80644;BME280;70010;60.224;24.712;2023-09-19T09:33:52;100075.79;;;13.75;65.44
80644;BME280;70010;60.224;24.712;2023-09-19T09:36:08;100070.35;;;15.08;60.54
80644;BME280;70010;60.224;24.712;2023-09-19T09:38:43;100065.69;;;15.27;58.60
80644;BME280;70010;60.224;24.712;2023-09-19T09:41:00;100076.86;;;12.21;69.59
80644;BME280;70010;60.224;24.712;2023-09-19T09:43:28;100062.66;;;14.19;64.24
80644;BME280;70010;60.224;24.712;2023-09-19T09:48:24;100059.27;;;13.62;65.37
80644;BME280;70010;60.224;24.712;2023-09-19T09:50:47;100060.22;;;12.70;69.39
80644;BME280;70010;60.224;24.712;2023-09-19T10:00:23;100036.31;;;15.58;59.85
80644;BME280;70010;60.224;24.712;2023-09-19T10:02:48;100035.72;;;13.21;68.77
80644;BME280;70010;60.224;24.712;2023-09-19T10:05:15;100029.28;;;13.69;65.89
80644;BME280;70010;60.224;24.712;2023-09-19T10:07:40;100019.35;;;14.71;63.40
80644;BME280;70010;60.224;24.712;2023-09-19T10:10:05;100016.78;;;15.48;60.35
80644;BME280;70010;60.224;24.712;2023-09-19T10:12:31;100017.81;;;14.56;62.55
80644;BME280;70010;60.224;24.712;2023-09-19T10:14:57;100016.66;;;14.02;64.15
80644;BME280;70010;60.224;24.712;2023-09-19T10:17:21;100014.01;;;13.42;66.45
80644;BME280;70010;60.224;24.712;2023-09-19T10:19:52;100009.01;;;13.86;66.88
80644;BME280;70010;60.224;24.712;2023-09-19T10:22:12;100008.87;;;14.41;63.40
80644;BME280;70010;60.224;24.712;2023-09-19T10:24:38;100003.26;;;12.47;71.32
80644;BME280;70010;60.224;24.712;2023-09-19T10:27:03;99994.76;;;13.30;69.44
80644;BME280;70010;60.224;24.712;2023-09-19T10:29:29;99995.92;;;12.03;74.24
80644;BME280;70010;60.224;24.712;2023-09-19T10:31:54;99988.29;;;13.39;70.38
80644;BME280;70010;60.224;24.712;2023-09-19T10:34:19;99983.67;;;13.46;69.01
80644;BME280;70010;60.224;24.712;2023-09-19T10:36:45;99982.70;;;12.23;74.06
80644;BME280;70010;60.224;24.712;2023-09-19T10:39:10;99981.12;;;12.49;73.94
80644;BME280;70010;60.224;24.712;2023-09-19T10:41:35;99980.17;;;12.84;73.13
80644;BME280;70010;60.224;24.712;2023-09-19T10:44:03;99975.71;;;13.14;70.28
80644;BME280;70010;60.224;24.712;2023-09-19T10:46:26;99965.95;;;13.38;70.18
80644;BME280;70010;60.224;24.712;2023-09-19T10:48:52;99967.73;;;13.04;71.62
80644;BME280;70010;60.224;24.712;2023-09-19T10:51:21;99974.18;;;12.76;73.18
80644;BME280;70010;60.224;24.712;2023-09-19T10:53:46;99964.81;;;12.11;75.83
80644;BME280;70010;60.224;24.712;2023-09-19T10:56:08;99965.09;;;14.89;65.03
80644;BME280;70010;60.224;24.712;2023-09-19T10:58:34;99965.20;;;12.59;72.33
80644;BME280;70010;60.224;24.712;2023-09-19T11:00:59;99954.72;;;14.33;66.69
80644;BME280;70010;60.224;24.712;2023-09-19T11:03:25;99951.21;;;13.77;69.41
80644;BME280;70010;60.224;24.712;2023-09-19T11:08:16;99946.57;;;14.00;67.45
80644;BME280;70010;60.224;24.712;2023-09-19T11:10:45;99951.77;;;14.08;68.24
80644;BME280;70010;60.224;24.712;2023-09-19T11:17:57;99938.41;;;15.06;63.11
80644;BME280;70010;60.224;24.712;2023-09-19T11:20:24;99941.09;;;14.83;63.48
80644;BME280;70010;60.224;24.712;2023-09-19T11:44:37;99918.72;;;15.26;63.61
80644;BME280;70010;60.224;24.712;2023-09-19T11:47:02;99914.45;;;15.17;64.44
80644;BME280;70010;60.224;24.712;2023-09-19T11:49:29;99914.89;;;14.13;69.07
80644;BME280;70010;60.224;24.712;2023-09-19T11:51:53;99906.23;;;14.11;68.74
80644;BME280;70010;60.224;24.712;2023-09-19T11:54:18;99901.93;;;13.48;72.81
80644;BME280;70010;60.224;24.712;2023-09-19T11:56:44;99891.75;;;14.03;68.43
80644;BME280;70010;60.224;24.712;2023-09-19T11:59:08;99887.69;;;13.78;69.83
80644;BME280;70010;60.224;24.712;2023-09-19T12:01:34;99883.04;;;13.49;70.21
80644;BME280;70010;60.224;24.712;2023-09-19T12:04:01;99878.07;;;14.78;65.21
80644;BME280;70010;60.224;24.712;2023-09-19T12:06:26;99881.15;;;15.64;62.45
80644;BME280;70010;60.224;24.712;2023-09-19T12:08:51;99871.47;;;16.76;57.69
80644;BME280;70010;60.224;24.712;2023-09-19T12:11:17;99871.77;;;15.86;59.85
80644;BME280;70010;60.224;24.712;2023-09-19T12:13:43;99863.61;;;14.94;62.39
80644;BME280;70010;60.224;24.712;2023-09-19T12:16:12;99862.68;;;14.67;63.64
80644;BME280;70010;60.224;24.712;2023-09-19T12:18:32;99857.97;;;14.43;64.90
80644;BME280;70010;60.224;24.712;2023-09-19T12:20:58;99852.96;;;15.73;61.55
80644;BME280;70010;60.224;24.712;2023-09-19T12:23:24;99845.03;;;15.39;61.66
80644;BME280;70010;60.224;24.712;2023-09-19T12:25:49;99842.60;;;15.19;61.88
80644;BME280;70010;60.224;24.712;2023-09-19T12:28:14;99830.99;;;16.86;58.51
80644;BME280;70010;60.224;24.712;2023-09-19T12:30:40;99822.18;;;16.78;57.20
80644;BME280;70010;60.224;24.712;2023-09-19T12:33:06;99811.15;;;16.84;57.52
80644;BME280;70010;60.224;24.712;2023-09-19T12:35:32;99808.48;;;15.57;61.48
80644;BME280;70010;60.224;24.712;2023-09-19T12:37:56;99798.24;;;18.40;54.41
80644;BME280;70010;60.224;24.712;2023-09-19T12:40:23;99790.12;;;18.50;52.83
80644;BME280;70010;60.224;24.712;2023-09-19T12:42:49;99781.49;;;18.33;52.79
80644;BME280;70010;60.224;24.712;2023-09-19T12:45:14;99778.10;;;18.39;52.26
80644;BME280;70010;60.224;24.712;2023-09-19T12:47:39;99772.78;;;16.85;56.64
80644;BME280;70010;60.224;24.712;2023-09-19T12:50:06;99770.90;;;18.45;53.70
80644;BME280;70010;60.224;24.712;2023-09-19T12:52:35;99771.90;;;16.23;59.65
80644;BME280;70010;60.224;24.712;2023-09-19T12:54:55;99766.54;;;17.57;56.01
80644;BME280;70010;60.224;24.712;2023-09-19T12:57:24;99762.48;;;17.84;54.29
80644;BME280;70010;60.224;24.712;2023-09-19T12:59:46;99757.94;;;16.13;59.16
80644;BME280;70010;60.224;24.712;2023-09-19T13:02:11;99759.01;;;16.44;58.98
80644;BME280;70010;60.224;24.712;2023-09-19T13:04:37;99749.69;;;16.84;58.35
80644;BME280;70010;60.224;24.712;2023-09-19T13:07:02;99756.26;;;14.83;62.90
80644;BME280;70010;60.224;24.712;2023-09-19T13:09:28;99757.98;;;13.89;70.24
80644;BME280;70010;60.224;24.712;2023-09-19T13:11:52;99757.88;;;14.24;67.91
80644;BME280;70010;60.224;24.712;2023-09-19T13:14:21;99756.97;;;15.37;63.70
80644;BME280;70010;60.224;24.712;2023-09-19T13:19:09;99771.83;;;16.25;60.43
80644;BME280;70010;60.224;24.712;2023-09-19T13:21:35;99765.04;;;16.01;61.19
80644;BME280;70010;60.224;24.712;2023-09-19T13:26:26;99764.87;;;15.62;62.91
80644;BME280;70010;60.224;24.712;2023-09-19T13:28:51;99750.91;;;16.20;60.67